createdAt,value
2022-10-29T00:00:42.539Z,18.12
2022-10-29T00:05:45.521Z,17.73
2022-10-29T00:10:49.877Z,17.40
2022-10-29T00:15:52.696Z,17.95
2022-10-29T00:21:01.940Z,17.89
2022-10-29T00:26:07.923Z,18.06
2022-10-29T00:31:16.442Z,17.44
2022-10-29T00:36:22.111Z,16.90
2022-10-29T00:41:30.376Z,16.23
2022-10-29T00:51:46.567Z,17.60
2022-10-29T00:56:53.816Z,17.57
2022-10-29T01:01:57.070Z,16.71
2022-10-29T01:07:00.251Z,16.79
2022-10-29T01:12:20.102Z,16.82
2022-10-29T01:17:31.654Z,16.32
2022-10-29T01:22:41.058Z,15.10
2022-10-29T01:28:04.057Z,14.67
2022-10-29T01:33:18.901Z,15.03
2022-10-29T01:38:33.440Z,15.05
2022-10-29T01:43:39.215Z,15.55
2022-10-29T01:48:46.549Z,14.35
2022-10-29T01:53:50.687Z,14.37
2022-10-29T01:58:59.495Z,14.90
2022-10-29T02:04:23.239Z,15.59
2022-10-29T02:09:34.118Z,14.45
2022-10-29T02:14:42.558Z,15.11
2022-10-29T02:19:47.087Z,15.23
2022-10-29T02:24:50.496Z,15.52
2022-10-29T02:29:53.648Z,14.83
2022-10-29T02:34:58.417Z,14.10
2022-10-29T02:40:04.892Z,13.93
2022-10-29T02:45:08.606Z,13.90
2022-10-29T02:50:12.887Z,13.78
2022-10-29T02:55:15.815Z,13.77
2022-10-29T03:00:19.484Z,13.73
2022-10-29T03:05:26.251Z,13.66
2022-10-29T03:10:29.332Z,13.79
2022-10-29T03:15:34.918Z,13.77
2022-10-29T03:20:41.316Z,13.83
2022-10-29T03:25:44.277Z,13.82
2022-10-29T03:30:47.404Z,14.78
2022-10-29T03:35:51.884Z,15.34
2022-10-29T03:40:57.415Z,15.35
2022-10-29T03:46:01.895Z,15.25
2022-10-29T03:51:08.921Z,13.28
2022-10-29T03:56:12.349Z,13.08
2022-10-29T04:01:15.163Z,14.13
2022-10-29T04:06:19.590Z,13.63
2022-10-29T04:11:24.948Z,13.43
2022-10-29T04:16:28.030Z,14.32
2022-10-29T04:32:21.063Z,13.23
2022-10-29T04:37:25.435Z,13.75
2022-10-29T04:42:28.020Z,14.58
2022-10-29T04:47:32.689Z,14.59
2022-10-29T04:52:36.783Z,14.68
2022-10-29T04:57:39.803Z,14.27
2022-10-29T05:02:44.823Z,14.45
2022-10-29T05:08:06.020Z,14.25
2022-10-29T05:13:12.131Z,14.05
2022-10-29T05:18:17.425Z,13.67
2022-10-29T05:23:22.065Z,13.20
2022-10-29T05:28:25.884Z,13.60
2022-10-29T05:33:28.644Z,14.30
2022-10-29T05:38:34.213Z,14.37
2022-10-29T05:43:37.420Z,13.70
2022-10-29T05:48:40.162Z,14.12
2022-10-29T05:53:44.372Z,14.48
2022-10-29T05:58:50.175Z,13.95
2022-10-29T06:08:57.272Z,12.21
2022-10-29T06:14:00.179Z,13.36
2022-10-29T06:19:03.259Z,13.89
2022-10-29T06:24:08.712Z,14.24
2022-10-29T06:29:11.490Z,13.93
2022-10-29T06:34:14.952Z,14.49
2022-10-29T06:39:19.404Z,13.58
2022-10-29T06:44:39.894Z,14.06
2022-10-29T06:49:42.627Z,14.42
2022-10-29T06:54:47.148Z,14.88
2022-10-29T06:59:51.502Z,15.03
2022-10-29T07:04:54.356Z,15.37
2022-10-29T07:09:59.352Z,14.62
2022-10-29T07:15:08.284Z,14.94
2022-10-29T07:20:19.191Z,15.48
2022-10-29T07:25:23.459Z,15.66
2022-10-29T07:30:26.313Z,15.08
2022-10-29T07:35:32.132Z,15.09
2022-10-29T07:40:56.742Z,16.16
2022-10-29T07:46:01.965Z,16.51
2022-10-29T07:51:04.953Z,16.28
2022-10-29T07:56:12.968Z,16.80
2022-10-29T08:01:42.040Z,17.25
2022-10-29T08:06:57.155Z,17.47
2022-10-29T08:12:48.644Z,17.70
2022-10-29T08:17:56.156Z,17.69
2022-10-29T08:23:03.860Z,17.27
2022-10-29T08:28:07.902Z,17.35
2022-10-29T08:33:16.068Z,18.08
2022-10-29T08:38:18.885Z,18.29
2022-10-29T08:43:34.531Z,18.72
2022-10-29T08:48:46.662Z,18.99
2022-10-29T08:54:25.107Z,19.26
2022-10-29T08:59:27.507Z,19.74
2022-10-29T09:04:38.447Z,20.09
2022-10-29T09:09:48.698Z,20.38
2022-10-29T09:15:10.651Z,21.09
2022-10-29T09:20:31.930Z,21.44
2022-10-29T09:25:40.252Z,21.69
2022-10-29T09:30:51.133Z,21.96
2022-10-29T09:35:57.405Z,22.36
2022-10-29T09:41:04.603Z,22.55
2022-10-29T09:46:13.362Z,22.41
2022-10-29T09:51:29.932Z,22.41
2022-10-29T09:56:33.054Z,22.75
2022-10-29T10:01:36.203Z,22.29
2022-10-29T10:07:08.804Z,22.30
2022-10-29T10:12:31.118Z,22.19
2022-10-29T10:18:01.897Z,22.52
2022-10-29T10:23:49.421Z,23.33
2022-10-29T10:29:05.465Z,25.00
2022-10-29T10:34:18.473Z,25.66
2022-10-29T10:39:38.873Z,24.23
2022-10-29T10:44:57.214Z,24.18
2022-10-29T10:50:15.951Z,24.53
2022-10-29T10:55:28.942Z,24.47
2022-10-29T11:07:01.691Z,24.35
2022-10-29T11:12:18.863Z,24.31
2022-10-29T11:17:33.518Z,27.03
2022-10-29T11:23:08.250Z,26.50
2022-10-29T11:28:24.890Z,25.87
2022-10-29T11:33:47.556Z,25.64
2022-10-29T11:38:55.429Z,26.12
2022-10-29T11:43:59.641Z,25.87
2022-10-29T11:49:21.554Z,24.87
2022-10-29T11:54:38.793Z,25.51
2022-10-29T12:00:00.970Z,26.61
2022-10-29T12:05:14.366Z,26.72
2022-10-29T12:10:38.732Z,28.07
2022-10-29T12:15:56.624Z,29.72
2022-10-29T12:21:07.782Z,29.48
2022-10-29T12:26:16.543Z,29.17
2022-10-29T12:31:27.763Z,27.75
2022-10-29T12:36:37.974Z,28.02
2022-10-29T12:42:23.279Z,28.76
2022-10-29T12:47:46.736Z,28.84
2022-10-29T12:52:54.356Z,29.14
2022-10-29T12:57:57.718Z,29.01
2022-10-29T13:03:02.310Z,28.50
2022-10-29T13:08:35.465Z,29.70
2022-10-29T13:13:48.593Z,29.32
2022-10-29T13:19:18.332Z,30.23
2022-10-29T13:24:22.101Z,28.87
2022-10-29T13:29:47.238Z,29.36
2022-10-29T13:34:57.228Z,27.59
2022-10-29T13:40:40.194Z,27.96
2022-10-29T13:45:51.726Z,26.22
2022-10-29T13:51:03.969Z,26.38
2022-10-29T13:56:10.824Z,26.47
2022-10-29T14:01:27.867Z,27.05
2022-10-29T14:06:37.616Z,27.90
2022-10-29T14:11:43.777Z,28.91
2022-10-29T14:16:46.761Z,27.40
2022-10-29T14:21:52.132Z,26.06
2022-10-29T14:27:10.407Z,26.41
2022-10-29T14:32:15.654Z,26.29
2022-10-29T14:37:29.721Z,25.45
2022-10-29T14:42:35.430Z,24.77
2022-10-29T14:47:40.602Z,23.77
2022-10-29T14:52:52.573Z,23.59
2022-10-29T14:58:04.421Z,23.23
2022-10-29T15:03:08.531Z,23.13
2022-10-29T15:08:19.166Z,23.14
2022-10-29T15:13:27.692Z,23.17
2022-10-29T15:18:45.184Z,22.53
2022-10-29T15:30:31.329Z,22.85
2022-10-29T15:35:41.241Z,21.53
2022-10-29T15:41:08.214Z,20.34
2022-10-29T15:46:16.159Z,19.96
2022-10-29T15:51:29.118Z,19.49
2022-10-29T15:56:53.432Z,19.08
2022-10-29T16:01:56.099Z,18.93
2022-10-29T16:06:58.831Z,19.62
2022-10-29T16:12:02.955Z,18.21
2022-10-29T16:17:05.818Z,18.16
2022-10-29T16:22:17.910Z,19.12
2022-10-29T16:27:29.736Z,18.42
2022-10-29T16:32:34.923Z,18.23
2022-10-29T16:37:37.630Z,18.72
2022-10-29T16:42:42.543Z,18.73
2022-10-29T16:47:45.441Z,18.59
2022-10-29T16:52:48.404Z,17.15
2022-10-29T16:57:55.460Z,17.20
2022-10-29T17:03:03.373Z,17.25
2022-10-29T17:08:11.208Z,17.18
2022-10-29T17:13:15.370Z,18.33
2022-10-29T17:18:17.906Z,18.78
2022-10-29T17:23:20.585Z,19.18
2022-10-29T17:28:29.148Z,18.39
2022-10-29T17:33:31.832Z,18.75
2022-10-29T17:38:34.864Z,17.81
2022-10-29T17:43:39.037Z,16.80
2022-10-29T17:48:42.196Z,16.69
2022-10-29T17:53:44.969Z,16.61
2022-10-29T17:58:49.226Z,16.49
2022-10-29T18:03:52.372Z,16.56
2022-10-29T18:08:55.153Z,17.21
2022-10-29T18:13:59.669Z,18.16
2022-10-29T18:19:03.773Z,18.39
2022-10-29T18:24:06.815Z,18.32
2022-10-29T18:29:12.830Z,18.13
2022-10-29T18:34:19.996Z,16.59
2022-10-29T18:39:22.799Z,16.91
2022-10-29T18:44:27.076Z,17.38
2022-10-29T18:49:29.605Z,18.09
2022-10-29T18:54:32.485Z,17.92
2022-10-29T18:59:36.773Z,18.33
2022-10-29T19:04:39.523Z,18.42
2022-10-29T19:09:42.314Z,17.07
2022-10-29T19:14:46.679Z,16.71
2022-10-29T19:19:49.532Z,16.04
2022-10-29T19:24:57.553Z,15.83
2022-10-29T19:30:02.372Z,16.06
2022-10-29T19:35:05.587Z,16.44
2022-10-29T19:40:11.659Z,17.28
2022-10-29T19:45:16.103Z,17.04
2022-10-29T19:50:18.984Z,17.37
2022-10-29T19:55:21.933Z,17.47
2022-10-29T20:00:26.314Z,16.30
2022-10-29T20:05:29.154Z,17.34
2022-10-29T20:10:35.316Z,17.08
2022-10-29T20:15:41.727Z,15.21
2022-10-29T20:20:44.683Z,14.63
2022-10-29T20:25:47.449Z,14.43
2022-10-29T20:30:51.555Z,14.22
2022-10-29T20:35:54.432Z,14.32
2022-10-29T20:40:57.341Z,14.64
2022-10-29T20:46:02.229Z,14.32
2022-10-29T20:51:05.378Z,14.16
2022-10-29T20:56:11.568Z,13.90
2022-10-29T21:01:20.701Z,14.00
2022-10-29T21:06:23.587Z,14.04
2022-10-29T21:11:26.448Z,14.09
2022-10-29T21:16:34.575Z,14.07
2022-10-29T21:21:38.118Z,14.88
2022-10-29T21:26:41.036Z,14.12
2022-10-29T21:31:47.950Z,13.92
2022-10-29T21:36:50.983Z,13.59
2022-10-29T21:42:00.891Z,13.80
2022-10-29T21:47:05.465Z,14.64
2022-10-29T21:52:08.206Z,14.27
2022-10-29T21:57:11.212Z,14.28
2022-10-29T22:02:15.580Z,15.33
2022-10-29T22:07:18.221Z,15.65
2022-10-29T22:12:20.959Z,14.57
2022-10-29T22:17:28.314Z,13.94
2022-10-29T22:22:31.185Z,13.86
2022-10-29T22:27:34.015Z,14.54
2022-10-29T22:32:38.433Z,14.44
2022-10-29T22:37:41.411Z,14.21
2022-10-29T22:42:44.431Z,13.46
2022-10-29T22:47:48.522Z,13.84
2022-10-29T22:52:51.241Z,13.57
2022-10-29T22:57:54.088Z,13.44
2022-10-29T23:02:59.971Z,13.35
2022-10-29T23:08:03.029Z,14.13
2022-10-29T23:13:05.831Z,14.18
2022-10-29T23:18:10.564Z,13.57
2022-10-29T23:23:14.520Z,12.96
2022-10-29T23:28:17.373Z,13.21
2022-10-29T23:33:21.849Z,12.79
2022-10-29T23:38:24.705Z,12.35
2022-10-29T23:43:27.673Z,12.16
2022-10-29T23:48:31.853Z,12.22
2022-10-29T23:53:34.522Z,12.36
2022-10-29T23:58:37.145Z,13.24
